sensor_id;sensor_type;location;lat;lon;timestamp;P1;durP1;ratioP1;P2;durP2;ratioP2
41705;SDS011;27385;51.096;17.190;2023-04-07T00:02:14;22.60;;;8.20;;
41705;SDS011;27385;51.096;17.190;2023-04-07T00:04:45;27.20;;;8.50;;
41705;SDS011;27385;51.096;17.190;2023-04-07T00:07:16;19.50;;;8.30;;
41705;SDS011;27385;51.096;17.190;2023-04-07T00:09:47;22.60;;;8.10;;
41705;SDS011;27385;51.096;17.190;2023-04-07T00:12:18;21.30;;;7.50;;
41705;SDS011;27385;51.096;17.190;2023-04-07T00:14:48;21.70;;;8.60;;
41705;SDS011;27385;51.096;17.190;2023-04-07T00:17:19;22.30;;;6.50;;
41705;SDS011;27385;51.096;17.190;2023-04-07T00:19:50;23.90;;;8.60;;
41705;SDS011;27385;51.096;17.190;2023-04-07T00:22:21;18.90;;;7.30;;
41705;SDS011;27385;51.096;17.190;2023-04-07T00:24:51;22.10;;;8.30;;
41705;SDS011;27385;51.096;17.190;2023-04-07T00:27:22;20.00;;;7.50;;
41705;SDS011;27385;51.096;17.190;2023-04-07T00:29:53;21.20;;;7.20;;
41705;SDS011;27385;51.096;17.190;2023-04-07T00:32:24;20.10;;;8.00;;
41705;SDS011;27385;51.096;17.190;2023-04-07T00:34:55;23.30;;;8.40;;
41705;SDS011;27385;51.096;17.190;2023-04-07T00:37:26;21.50;;;7.60;;
41705;SDS011;27385;51.096;17.190;2023-04-07T00:39:57;18.00;;;7.30;;
41705;SDS011;27385;51.096;17.190;2023-04-07T00:42:28;23.50;;;9.40;;
41705;SDS011;27385;51.096;17.190;2023-04-07T00:45:00;26.30;;;9.40;;
41705;SDS011;27385;51.096;17.190;2023-04-07T00:47:32;20.20;;;8.10;;
41705;SDS011;27385;51.096;17.190;2023-04-07T00:50:04;23.10;;;8.70;;
41705;SDS011;27385;51.096;17.190;2023-04-07T00:52:35;24.30;;;8.60;;
41705;SDS011;27385;51.096;17.190;2023-04-07T00:55:08;22.10;;;9.00;;
41705;SDS011;27385;51.096;17.190;2023-04-07T00:57:39;22.20;;;7.30;;
41705;SDS011;27385;51.096;17.190;2023-04-07T01:00:10;21.30;;;8.20;;
41705;SDS011;27385;51.096;17.190;2023-04-07T01:02:42;20.40;;;8.60;;
41705;SDS011;27385;51.096;17.190;2023-04-07T01:05:22;20.80;;;8.80;;
41705;SDS011;27385;51.096;17.190;2023-04-07T01:07:59;22.90;;;7.30;;
41705;SDS011;27385;51.096;17.190;2023-04-07T01:10:39;18.90;;;7.30;;
41705;SDS011;27385;51.096;17.190;2023-04-07T01:13:18;19.60;;;7.10;;
41705;SDS011;27385;51.096;17.190;2023-04-07T01:15:54;21.60;;;7.10;;
41705;SDS011;27385;51.096;17.190;2023-04-07T01:18:30;22.10;;;8.80;;
41705;SDS011;27385;51.096;17.190;2023-04-07T01:21:04;23.10;;;8.50;;
41705;SDS011;27385;51.096;17.190;2023-04-07T01:23:51;24.40;;;9.10;;
41705;SDS011;27385;51.096;17.190;2023-04-07T01:26:29;20.40;;;7.20;;
41705;SDS011;27385;51.096;17.190;2023-04-07T01:29:06;22.00;;;8.40;;
41705;SDS011;27385;51.096;17.190;2023-04-07T01:31:45;21.80;;;9.10;;
41705;SDS011;27385;51.096;17.190;2023-04-07T01:34:18;25.20;;;10.50;;
41705;SDS011;27385;51.096;17.190;2023-04-07T01:36:50;23.50;;;9.70;;
41705;SDS011;27385;51.096;17.190;2023-04-07T01:39:22;23.10;;;9.30;;
41705;SDS011;27385;51.096;17.190;2023-04-07T01:41:54;21.70;;;9.80;;
41705;SDS011;27385;51.096;17.190;2023-04-07T01:44:29;22.60;;;9.50;;
41705;SDS011;27385;51.096;17.190;2023-04-07T01:47:02;24.20;;;9.20;;
41705;SDS011;27385;51.096;17.190;2023-04-07T01:49:34;22.60;;;9.00;;
41705;SDS011;27385;51.096;17.190;2023-04-07T01:52:06;24.00;;;8.90;;
41705;SDS011;27385;51.096;17.190;2023-04-07T01:54:37;24.20;;;8.80;;
41705;SDS011;27385;51.096;17.190;2023-04-07T01:57:09;21.90;;;8.90;;
41705;SDS011;27385;51.096;17.190;2023-04-07T01:59:40;23.50;;;8.00;;
41705;SDS011;27385;51.096;17.190;2023-04-07T02:02:11;18.70;;;7.60;;
41705;SDS011;27385;51.096;17.190;2023-04-07T02:04:44;23.40;;;9.40;;
41705;SDS011;27385;51.096;17.190;2023-04-07T02:07:23;24.80;;;9.30;;
41705;SDS011;27385;51.096;17.190;2023-04-07T02:09:59;21.80;;;9.40;;
41705;SDS011;27385;51.096;17.190;2023-04-07T02:12:33;23.70;;;9.70;;
41705;SDS011;27385;51.096;17.190;2023-04-07T02:15:08;22.10;;;8.90;;
41705;SDS011;27385;51.096;17.190;2023-04-07T02:17:41;22.50;;;8.90;;
41705;SDS011;27385;51.096;17.190;2023-04-07T02:20:14;25.00;;;11.40;;
41705;SDS011;27385;51.096;17.190;2023-04-07T02:22:46;24.50;;;10.40;;
41705;SDS011;27385;51.096;17.190;2023-04-07T02:25:24;25.40;;;10.80;;
41705;SDS011;27385;51.096;17.190;2023-04-07T02:27:57;23.30;;;9.60;;
41705;SDS011;27385;51.096;17.190;2023-04-07T02:30:28;24.40;;;9.30;;
41705;SDS011;27385;51.096;17.190;2023-04-07T02:32:59;25.70;;;8.50;;
41705;SDS011;27385;51.096;17.190;2023-04-07T02:35:30;25.00;;;10.60;;
41705;SDS011;27385;51.096;17.190;2023-04-07T02:38:01;25.70;;;8.70;;
41705;SDS011;27385;51.096;17.190;2023-04-07T02:40:32;23.30;;;8.60;;
41705;SDS011;27385;51.096;17.190;2023-04-07T02:43:03;22.40;;;9.30;;
41705;SDS011;27385;51.096;17.190;2023-04-07T02:45:34;21.60;;;8.60;;
41705;SDS011;27385;51.096;17.190;2023-04-07T02:48:05;22.70;;;8.80;;
41705;SDS011;27385;51.096;17.190;2023-04-07T02:50:36;21.30;;;8.50;;
41705;SDS011;27385;51.096;17.190;2023-04-07T02:53:08;25.70;;;8.60;;
41705;SDS011;27385;51.096;17.190;2023-04-07T02:55:39;24.40;;;9.00;;
41705;SDS011;27385;51.096;17.190;2023-04-07T02:58:10;21.60;;;7.40;;
41705;SDS011;27385;51.096;17.190;2023-04-07T03:00:40;20.20;;;8.00;;
41705;SDS011;27385;51.096;17.190;2023-04-07T03:03:11;21.00;;;7.30;;
41705;SDS011;27385;51.096;17.190;2023-04-07T03:05:42;23.30;;;8.90;;
41705;SDS011;27385;51.096;17.190;2023-04-07T03:08:13;22.20;;;8.70;;
41705;SDS011;27385;51.096;17.190;2023-04-07T03:10:44;20.90;;;8.40;;
41705;SDS011;27385;51.096;17.190;2023-04-07T03:13:15;21.00;;;7.80;;
41705;SDS011;27385;51.096;17.190;2023-04-07T03:15:46;25.50;;;9.70;;
41705;SDS011;27385;51.096;17.190;2023-04-07T03:18:17;26.60;;;10.50;;
41705;SDS011;27385;51.096;17.190;2023-04-07T03:20:48;23.80;;;9.50;;
41705;SDS011;27385;51.096;17.190;2023-04-07T03:23:22;23.30;;;9.80;;
41705;SDS011;27385;51.096;17.190;2023-04-07T03:25:53;24.10;;;9.40;;
41705;SDS011;27385;51.096;17.190;2023-04-07T03:28:24;21.10;;;8.80;;
41705;SDS011;27385;51.096;17.190;2023-04-07T03:30:55;22.00;;;9.30;;
41705;SDS011;27385;51.096;17.190;2023-04-07T03:33:26;20.20;;;8.50;;
41705;SDS011;27385;51.096;17.190;2023-04-07T03:35:57;20.80;;;8.80;;
41705;SDS011;27385;51.096;17.190;2023-04-07T03:38:28;25.00;;;10.70;;
41705;SDS011;27385;51.096;17.190;2023-04-07T03:40:58;25.40;;;10.40;;
41705;SDS011;27385;51.096;17.190;2023-04-07T03:43:29;24.60;;;9.40;;
41705;SDS011;27385;51.096;17.190;2023-04-07T03:46:00;29.30;;;10.20;;
41705;SDS011;27385;51.096;17.190;2023-04-07T03:48:31;27.00;;;10.70;;
41705;SDS011;27385;51.096;17.190;2023-04-07T03:51:02;23.60;;;9.60;;
41705;SDS011;27385;51.096;17.190;2023-04-07T03:53:33;21.70;;;9.80;;
41705;SDS011;27385;51.096;17.190;2023-04-07T03:56:04;23.70;;;9.90;;
41705;SDS011;27385;51.096;17.190;2023-04-07T03:58:35;23.30;;;9.90;;
41705;SDS011;27385;51.096;17.190;2023-04-07T04:01:09;24.60;;;10.40;;
41705;SDS011;27385;51.096;17.190;2023-04-07T04:03:40;22.50;;;9.70;;
41705;SDS011;27385;51.096;17.190;2023-04-07T04:06:11;22.90;;;9.90;;
41705;SDS011;27385;51.096;17.190;2023-04-07T04:08:42;22.60;;;9.20;;
41705;SDS011;27385;51.096;17.190;2023-04-07T04:11:12;23.90;;;9.50;;
41705;SDS011;27385;51.096;17.190;2023-04-07T04:13:44;24.70;;;10.00;;
41705;SDS011;27385;51.096;17.190;2023-04-07T04:16:14;24.60;;;10.40;;
41705;SDS011;27385;51.096;17.190;2023-04-07T04:18:45;29.50;;;11.00;;
41705;SDS011;27385;51.096;17.190;2023-04-07T04:21:16;23.80;;;9.90;;
41705;SDS011;27385;51.096;17.190;2023-04-07T04:23:47;25.60;;;10.90;;
41705;SDS011;27385;51.096;17.190;2023-04-07T04:26:18;24.30;;;9.60;;
41705;SDS011;27385;51.096;17.190;2023-04-07T04:28:52;28.70;;;10.70;;
41705;SDS011;27385;51.096;17.190;2023-04-07T04:31:23;26.60;;;11.60;;
41705;SDS011;27385;51.096;17.190;2023-04-07T04:33:54;28.40;;;12.10;;
41705;SDS011;27385;51.096;17.190;2023-04-07T04:36:25;25.90;;;11.40;;
41705;SDS011;27385;51.096;17.190;2023-04-07T04:38:55;24.50;;;9.60;;
41705;SDS011;27385;51.096;17.190;2023-04-07T04:41:26;26.50;;;11.30;;
41705;SDS011;27385;51.096;17.190;2023-04-07T04:43:57;25.00;;;9.90;;
41705;SDS011;27385;51.096;17.190;2023-04-07T04:46:28;24.30;;;10.60;;
41705;SDS011;27385;51.096;17.190;2023-04-07T04:48:59;25.80;;;10.20;;
41705;SDS011;27385;51.096;17.190;2023-04-07T04:51:30;21.80;;;9.20;;
41705;SDS011;27385;51.096;17.190;2023-04-07T04:54:01;24.00;;;9.30;;
41705;SDS011;27385;51.096;17.190;2023-04-07T04:56:33;21.60;;;8.40;;
41705;SDS011;27385;51.096;17.190;2023-04-07T04:59:04;23.90;;;9.70;;
41705;SDS011;27385;51.096;17.190;2023-04-07T05:01:35;25.20;;;10.30;;
41705;SDS011;27385;51.096;17.190;2023-04-07T05:04:05;26.30;;;10.80;;
41705;SDS011;27385;51.096;17.190;2023-04-07T05:06:37;22.10;;;9.20;;
41705;SDS011;27385;51.096;17.190;2023-04-07T05:09:07;23.20;;;9.10;;
41705;SDS011;27385;51.096;17.190;2023-04-07T05:11:39;26.40;;;10.50;;
41705;SDS011;27385;51.096;17.190;2023-04-07T05:14:10;24.70;;;10.20;;
41705;SDS011;27385;51.096;17.190;2023-04-07T05:16:41;28.00;;;11.00;;
41705;SDS011;27385;51.096;17.190;2023-04-07T05:19:12;24.00;;;9.20;;
41705;SDS011;27385;51.096;17.190;2023-04-07T05:21:43;22.20;;;8.20;;
41705;SDS011;27385;51.096;17.190;2023-04-07T05:24:15;24.60;;;10.10;;
41705;SDS011;27385;51.096;17.190;2023-04-07T05:26:46;24.80;;;9.80;;
41705;SDS011;27385;51.096;17.190;2023-04-07T05:29:16;27.10;;;10.40;;
41705;SDS011;27385;51.096;17.190;2023-04-07T05:31:47;31.60;;;11.20;;
41705;SDS011;27385;51.096;17.190;2023-04-07T05:34:18;20.70;;;8.50;;
41705;SDS011;27385;51.096;17.190;2023-04-07T05:36:49;24.00;;;9.70;;
41705;SDS011;27385;51.096;17.190;2023-04-07T05:39:20;23.50;;;9.30;;
41705;SDS011;27385;51.096;17.190;2023-04-07T05:41:50;22.30;;;8.40;;
41705;SDS011;27385;51.096;17.190;2023-04-07T05:44:21;23.70;;;9.40;;
41705;SDS011;27385;51.096;17.190;2023-04-07T05:46:52;21.20;;;9.00;;
41705;SDS011;27385;51.096;17.190;2023-04-07T05:49:23;23.10;;;9.70;;
41705;SDS011;27385;51.096;17.190;2023-04-07T05:51:54;22.80;;;8.40;;
41705;SDS011;27385;51.096;17.190;2023-04-07T05:54:25;28.00;;;10.10;;
41705;SDS011;27385;51.096;17.190;2023-04-07T05:56:56;25.30;;;10.90;;
41705;SDS011;27385;51.096;17.190;2023-04-07T05:59:26;21.30;;;8.50;;
41705;SDS011;27385;51.096;17.190;2023-04-07T06:01:58;26.90;;;9.60;;
41705;SDS011;27385;51.096;17.190;2023-04-07T06:04:29;25.60;;;10.20;;
41705;SDS011;27385;51.096;17.190;2023-04-07T06:07:02;21.40;;;8.40;;
41705;SDS011;27385;51.096;17.190;2023-04-07T06:09:33;25.00;;;9.50;;
41705;SDS011;27385;51.096;17.190;2023-04-07T06:12:04;23.50;;;8.90;;
41705;SDS011;27385;51.096;17.190;2023-04-07T06:14:36;22.30;;;9.00;;
41705;SDS011;27385;51.096;17.190;2023-04-07T06:17:06;22.50;;;9.00;;
41705;SDS011;27385;51.096;17.190;2023-04-07T06:19:38;21.10;;;8.50;;
41705;SDS011;27385;51.096;17.190;2023-04-07T06:22:09;23.70;;;10.30;;
41705;SDS011;27385;51.096;17.190;2023-04-07T06:24:39;24.40;;;9.90;;
41705;SDS011;27385;51.096;17.190;2023-04-07T06:27:11;21.90;;;8.80;;
41705;SDS011;27385;51.096;17.190;2023-04-07T06:29:41;25.10;;;10.00;;
41705;SDS011;27385;51.096;17.190;2023-04-07T06:32:13;24.10;;;10.10;;
41705;SDS011;27385;51.096;17.190;2023-04-07T06:34:44;22.10;;;9.10;;
41705;SDS011;27385;51.096;17.190;2023-04-07T06:37:15;21.80;;;9.50;;
41705;SDS011;27385;51.096;17.190;2023-04-07T06:39:46;20.20;;;9.40;;
41705;SDS011;27385;51.096;17.190;2023-04-07T06:42:17;23.60;;;8.60;;
41705;SDS011;27385;51.096;17.190;2023-04-07T06:44:48;26.00;;;8.50;;
41705;SDS011;27385;51.096;17.190;2023-04-07T06:47:19;27.20;;;9.30;;
41705;SDS011;27385;51.096;17.190;2023-04-07T06:49:50;22.70;;;8.50;;
41705;SDS011;27385;51.096;17.190;2023-04-07T06:52:21;21.40;;;8.80;;
41705;SDS011;27385;51.096;17.190;2023-04-07T06:54:52;22.00;;;9.30;;
41705;SDS011;27385;51.096;17.190;2023-04-07T06:57:23;28.40;;;9.30;;
41705;SDS011;27385;51.096;17.190;2023-04-07T06:59:54;21.30;;;8.10;;
41705;SDS011;27385;51.096;17.190;2023-04-07T07:02:25;22.30;;;8.20;;
41705;SDS011;27385;51.096;17.190;2023-04-07T07:04:56;21.90;;;8.70;;
41705;SDS011;27385;51.096;17.190;2023-04-07T07:07:27;27.20;;;10.30;;
41705;SDS011;27385;51.096;17.190;2023-04-07T07:09:57;23.30;;;9.50;;
41705;SDS011;27385;51.096;17.190;2023-04-07T07:12:28;24.20;;;9.50;;
41705;SDS011;27385;51.096;17.190;2023-04-07T07:15:00;21.30;;;8.50;;
41705;SDS011;27385;51.096;17.190;2023-04-07T07:17:31;25.90;;;9.90;;
41705;SDS011;27385;51.096;17.190;2023-04-07T07:20:03;23.20;;;9.50;;
41705;SDS011;27385;51.096;17.190;2023-04-07T07:22:36;22.00;;;8.50;;
41705;SDS011;27385;51.096;17.190;2023-04-07T07:25:07;27.20;;;10.20;;
41705;SDS011;27385;51.096;17.190;2023-04-07T07:27:38;22.20;;;8.80;;
41705;SDS011;27385;51.096;17.190;2023-04-07T07:30:09;22.70;;;8.10;;
41705;SDS011;27385;51.096;17.190;2023-04-07T07:32:41;21.90;;;9.00;;
41705;SDS011;27385;51.096;17.190;2023-04-07T07:35:11;24.10;;;9.30;;
41705;SDS011;27385;51.096;17.190;2023-04-07T07:37:42;24.70;;;9.30;;
41705;SDS011;27385;51.096;17.190;2023-04-07T07:40:14;25.40;;;10.70;;
41705;SDS011;27385;51.096;17.190;2023-04-07T07:42:45;22.10;;;8.60;;
41705;SDS011;27385;51.096;17.190;2023-04-07T07:45:16;21.40;;;8.70;;
41705;SDS011;27385;51.096;17.190;2023-04-07T07:47:47;27.10;;;9.90;;
41705;SDS011;27385;51.096;17.190;2023-04-07T07:50:18;24.30;;;10.10;;
41705;SDS011;27385;51.096;17.190;2023-04-07T07:52:49;23.40;;;8.40;;
41705;SDS011;27385;51.096;17.190;2023-04-07T07:55:20;22.50;;;8.30;;
41705;SDS011;27385;51.096;17.190;2023-04-07T07:57:51;22.40;;;9.10;;
41705;SDS011;27385;51.096;17.190;2023-04-07T08:00:23;22.60;;;7.90;;
41705;SDS011;27385;51.096;17.190;2023-04-07T08:02:55;19.70;;;8.40;;
41705;SDS011;27385;51.096;17.190;2023-04-07T08:05:27;20.80;;;8.90;;
41705;SDS011;27385;51.096;17.190;2023-04-07T08:07:58;24.90;;;8.40;;
41705;SDS011;27385;51.096;17.190;2023-04-07T08:10:29;24.20;;;8.80;;
41705;SDS011;27385;51.096;17.190;2023-04-07T08:13:00;20.60;;;8.10;;
41705;SDS011;27385;51.096;17.190;2023-04-07T08:15:32;22.10;;;8.70;;
41705;SDS011;27385;51.096;17.190;2023-04-07T08:18:02;23.60;;;8.70;;
41705;SDS011;27385;51.096;17.190;2023-04-07T08:20:34;20.90;;;7.70;;
41705;SDS011;27385;51.096;17.190;2023-04-07T08:23:05;21.20;;;8.20;;
41705;SDS011;27385;51.096;17.190;2023-04-07T08:25:36;22.40;;;8.10;;
41705;SDS011;27385;51.096;17.190;2023-04-07T08:28:07;19.40;;;7.20;;
41705;SDS011;27385;51.096;17.190;2023-04-07T08:30:38;22.90;;;7.70;;
41705;SDS011;27385;51.096;17.190;2023-04-07T08:33:09;22.70;;;8.10;;
41705;SDS011;27385;51.096;17.190;2023-04-07T08:35:40;22.90;;;8.90;;
41705;SDS011;27385;51.096;17.190;2023-04-07T08:38:11;21.60;;;8.60;;
41705;SDS011;27385;51.096;17.190;2023-04-07T08:40:42;20.90;;;8.70;;
41705;SDS011;27385;51.096;17.190;2023-04-07T08:43:14;22.50;;;9.10;;
41705;SDS011;27385;51.096;17.190;2023-04-07T08:45:48;22.50;;;10.10;;
41705;SDS011;27385;51.096;17.190;2023-04-07T08:48:20;22.00;;;8.70;;
41705;SDS011;27385;51.096;17.190;2023-04-07T08:50:55;24.00;;;8.40;;
41705;SDS011;27385;51.096;17.190;2023-04-07T08:53:29;23.70;;;9.00;;
41705;SDS011;27385;51.096;17.190;2023-04-07T08:56:06;19.70;;;8.50;;
41705;SDS011;27385;51.096;17.190;2023-04-07T08:58:39;21.80;;;8.60;;
41705;SDS011;27385;51.096;17.190;2023-04-07T09:01:11;25.10;;;7.50;;
41705;SDS011;27385;51.096;17.190;2023-04-07T09:03:43;20.10;;;8.30;;
41705;SDS011;27385;51.096;17.190;2023-04-07T09:06:15;20.70;;;7.00;;
41705;SDS011;27385;51.096;17.190;2023-04-07T09:08:47;22.80;;;8.30;;
41705;SDS011;27385;51.096;17.190;2023-04-07T09:11:18;18.50;;;7.10;;
41705;SDS011;27385;51.096;17.190;2023-04-07T09:13:50;18.20;;;6.90;;
41705;SDS011;27385;51.096;17.190;2023-04-07T09:16:23;23.90;;;7.60;;
41705;SDS011;27385;51.096;17.190;2023-04-07T09:18:56;16.30;;;6.20;;
41705;SDS011;27385;51.096;17.190;2023-04-07T09:21:28;19.00;;;7.50;;
41705;SDS011;27385;51.096;17.190;2023-04-07T09:24:23;20.10;;;7.20;;
41705;SDS011;27385;51.096;17.190;2023-04-07T09:27:14;21.00;;;8.30;;
41705;SDS011;27385;51.096;17.190;2023-04-07T09:29:46;20.60;;;8.40;;
41705;SDS011;27385;51.096;17.190;2023-04-07T09:32:33;22.10;;;8.40;;
41705;SDS011;27385;51.096;17.190;2023-04-07T09:35:06;20.10;;;7.70;;
41705;SDS011;27385;51.096;17.190;2023-04-07T09:37:37;22.90;;;8.70;;
41705;SDS011;27385;51.096;17.190;2023-04-07T09:40:09;18.90;;;8.20;;
41705;SDS011;27385;51.096;17.190;2023-04-07T09:43:01;22.60;;;8.10;;
41705;SDS011;27385;51.096;17.190;2023-04-07T09:45:33;22.60;;;9.20;;
41705;SDS011;27385;51.096;17.190;2023-04-07T09:48:06;21.60;;;8.50;;
41705;SDS011;27385;51.096;17.190;2023-04-07T09:50:47;19.40;;;6.80;;
41705;SDS011;27385;51.096;17.190;2023-04-07T09:53:19;21.00;;;8.00;;
41705;SDS011;27385;51.096;17.190;2023-04-07T09:56:13;26.10;;;8.60;;
41705;SDS011;27385;51.096;17.190;2023-04-07T09:58:46;21.10;;;8.80;;
41705;SDS011;27385;51.096;17.190;2023-04-07T10:01:19;20.60;;;8.00;;
41705;SDS011;27385;51.096;17.190;2023-04-07T10:03:50;20.90;;;8.00;;
41705;SDS011;27385;51.096;17.190;2023-04-07T10:06:23;22.00;;;7.60;;
41705;SDS011;27385;51.096;17.190;2023-04-07T10:08:55;19.90;;;7.60;;
41705;SDS011;27385;51.096;17.190;2023-04-07T10:11:26;21.50;;;8.20;;
41705;SDS011;27385;51.096;17.190;2023-04-07T10:13:59;21.40;;;7.90;;
41705;SDS011;27385;51.096;17.190;2023-04-07T10:16:30;20.90;;;7.50;;
41705;SDS011;27385;51.096;17.190;2023-04-07T10:19:01;21.90;;;7.70;;
41705;SDS011;27385;51.096;17.190;2023-04-07T10:21:34;19.90;;;7.50;;
41705;SDS011;27385;51.096;17.190;2023-04-07T10:24:11;21.20;;;7.70;;
41705;SDS011;27385;51.096;17.190;2023-04-07T10:26:50;21.70;;;7.30;;
41705;SDS011;27385;51.096;17.190;2023-04-07T10:29:24;19.40;;;7.00;;
41705;SDS011;27385;51.096;17.190;2023-04-07T10:31:59;20.90;;;7.80;;
41705;SDS011;27385;51.096;17.190;2023-04-07T10:37:28;21.90;;;7.50;;
41705;SDS011;27385;51.096;17.190;2023-04-07T10:42:59;24.30;;;8.20;;
41705;SDS011;27385;51.096;17.190;2023-04-07T10:48:23;22.00;;;8.30;;
41705;SDS011;27385;51.096;17.190;2023-04-07T10:51:12;21.70;;;8.60;;
41705;SDS011;27385;51.096;17.190;2023-04-07T11:02:44;20.50;;;7.50;;
41705;SDS011;27385;51.096;17.190;2023-04-07T11:05:22;23.10;;;9.40;;
41705;SDS011;27385;51.096;17.190;2023-04-07T11:07:53;22.90;;;9.40;;
41705;SDS011;27385;51.096;17.190;2023-04-07T11:10:25;22.40;;;8.80;;
41705;SDS011;27385;51.096;17.190;2023-04-07T11:13:06;21.80;;;8.50;;
41705;SDS011;27385;51.096;17.190;2023-04-07T11:15:38;22.40;;;7.80;;
41705;SDS011;27385;51.096;17.190;2023-04-07T11:18:10;21.30;;;8.90;;
41705;SDS011;27385;51.096;17.190;2023-04-07T11:20:47;24.20;;;9.10;;
41705;SDS011;27385;51.096;17.190;2023-04-07T11:23:20;20.20;;;7.50;;
41705;SDS011;27385;51.096;17.190;2023-04-07T11:25:53;20.30;;;7.70;;
41705;SDS011;27385;51.096;17.190;2023-04-07T11:28:30;24.00;;;8.70;;
41705;SDS011;27385;51.096;17.190;2023-04-07T11:31:02;25.10;;;9.50;;
41705;SDS011;27385;51.096;17.190;2023-04-07T11:33:34;21.40;;;7.50;;
41705;SDS011;27385;51.096;17.190;2023-04-07T11:36:06;20.00;;;7.50;;
41705;SDS011;27385;51.096;17.190;2023-04-07T11:38:38;24.00;;;8.60;;
41705;SDS011;27385;51.096;17.190;2023-04-07T11:41:11;22.00;;;9.10;;
41705;SDS011;27385;51.096;17.190;2023-04-07T11:43:43;23.70;;;8.40;;
41705;SDS011;27385;51.096;17.190;2023-04-07T11:46:15;24.40;;;9.30;;
41705;SDS011;27385;51.096;17.190;2023-04-07T11:48:47;22.00;;;7.80;;
41705;SDS011;27385;51.096;17.190;2023-04-07T11:51:19;21.60;;;8.10;;
41705;SDS011;27385;51.096;17.190;2023-04-07T11:53:54;24.40;;;8.50;;
41705;SDS011;27385;51.096;17.190;2023-04-07T11:56:25;23.60;;;8.80;;
41705;SDS011;27385;51.096;17.190;2023-04-07T11:58:57;19.90;;;7.50;;
41705;SDS011;27385;51.096;17.190;2023-04-07T12:01:38;20.90;;;7.90;;
41705;SDS011;27385;51.096;17.190;2023-04-07T12:06:42;22.80;;;8.00;;
41705;SDS011;27385;51.096;17.190;2023-04-07T12:09:27;22.60;;;8.90;;
41705;SDS011;27385;51.096;17.190;2023-04-07T12:12:03;25.10;;;9.20;;
41705;SDS011;27385;51.096;17.190;2023-04-07T12:14:35;20.70;;;8.50;;
41705;SDS011;27385;51.096;17.190;2023-04-07T12:17:05;23.00;;;9.20;;
41705;SDS011;27385;51.096;17.190;2023-04-07T12:19:48;24.10;;;9.40;;
41705;SDS011;27385;51.096;17.190;2023-04-07T12:22:19;27.70;;;10.70;;
41705;SDS011;27385;51.096;17.190;2023-04-07T12:24:50;23.50;;;10.00;;
41705;SDS011;27385;51.096;17.190;2023-04-07T12:27:21;24.50;;;9.40;;
41705;SDS011;27385;51.096;17.190;2023-04-07T12:29:52;25.90;;;8.30;;
41705;SDS011;27385;51.096;17.190;2023-04-07T12:32:23;23.20;;;8.70;;
41705;SDS011;27385;51.096;17.190;2023-04-07T12:34:55;21.30;;;7.70;;
41705;SDS011;27385;51.096;17.190;2023-04-07T12:37:26;27.70;;;10.70;;
41705;SDS011;27385;51.096;17.190;2023-04-07T12:39:57;24.70;;;9.60;;
41705;SDS011;27385;51.096;17.190;2023-04-07T12:42:28;24.80;;;10.20;;
41705;SDS011;27385;51.096;17.190;2023-04-07T12:44:59;24.50;;;9.20;;
41705;SDS011;27385;51.096;17.190;2023-04-07T12:47:30;24.00;;;10.00;;
41705;SDS011;27385;51.096;17.190;2023-04-07T12:50:00;25.20;;;9.00;;
41705;SDS011;27385;51.096;17.190;2023-04-07T12:52:32;23.30;;;10.00;;
41705;SDS011;27385;51.096;17.190;2023-04-07T12:55:03;22.60;;;9.00;;
41705;SDS011;27385;51.096;17.190;2023-04-07T12:57:35;24.90;;;9.20;;
41705;SDS011;27385;51.096;17.190;2023-04-07T13:00:06;25.60;;;10.00;;
41705;SDS011;27385;51.096;17.190;2023-04-07T13:02:40;21.90;;;9.30;;
41705;SDS011;27385;51.096;17.190;2023-04-07T13:05:12;27.80;;;9.90;;
41705;SDS011;27385;51.096;17.190;2023-04-07T13:07:45;24.70;;;8.90;;
41705;SDS011;27385;51.096;17.190;2023-04-07T13:10:17;27.00;;;11.30;;
41705;SDS011;27385;51.096;17.190;2023-04-07T13:12:48;24.10;;;9.40;;
41705;SDS011;27385;51.096;17.190;2023-04-07T13:15:21;30.10;;;11.50;;
41705;SDS011;27385;51.096;17.190;2023-04-07T13:17:53;26.20;;;10.90;;
41705;SDS011;27385;51.096;17.190;2023-04-07T13:20:25;28.80;;;11.10;;
41705;SDS011;27385;51.096;17.190;2023-04-07T13:22:57;24.10;;;10.40;;
41705;SDS011;27385;51.096;17.190;2023-04-07T13:25:28;24.30;;;10.30;;
41705;SDS011;27385;51.096;17.190;2023-04-07T13:27:59;24.00;;;9.20;;
41705;SDS011;27385;51.096;17.190;2023-04-07T13:30:31;24.30;;;9.70;;
41705;SDS011;27385;51.096;17.190;2023-04-07T13:33:03;26.40;;;10.60;;
41705;SDS011;27385;51.096;17.190;2023-04-07T13:35:34;28.30;;;10.50;;
41705;SDS011;27385;51.096;17.190;2023-04-07T13:38:05;24.20;;;10.10;;
41705;SDS011;27385;51.096;17.190;2023-04-07T13:40:36;27.70;;;11.30;;
41705;SDS011;27385;51.096;17.190;2023-04-07T13:43:08;23.40;;;9.40;;
41705;SDS011;27385;51.096;17.190;2023-04-07T13:45:39;27.10;;;9.70;;
41705;SDS011;27385;51.096;17.190;2023-04-07T13:48:10;25.10;;;10.00;;
41705;SDS011;27385;51.096;17.190;2023-04-07T13:50:41;25.40;;;9.60;;
41705;SDS011;27385;51.096;17.190;2023-04-07T13:53:12;22.30;;;9.70;;
41705;SDS011;27385;51.096;17.190;2023-04-07T13:55:43;26.40;;;9.30;;
41705;SDS011;27385;51.096;17.190;2023-04-07T13:58:14;25.00;;;10.30;;
41705;SDS011;27385;51.096;17.190;2023-04-07T14:00:45;24.30;;;8.50;;
41705;SDS011;27385;51.096;17.190;2023-04-07T14:03:16;27.00;;;9.30;;
41705;SDS011;27385;51.096;17.190;2023-04-07T14:05:47;30.60;;;11.20;;
41705;SDS011;27385;51.096;17.190;2023-04-07T14:08:19;26.30;;;10.40;;
41705;SDS011;27385;51.096;17.190;2023-04-07T14:10:50;24.80;;;9.60;;
41705;SDS011;27385;51.096;17.190;2023-04-07T14:13:22;27.20;;;9.90;;
41705;SDS011;27385;51.096;17.190;2023-04-07T14:15:53;24.60;;;10.50;;
41705;SDS011;27385;51.096;17.190;2023-04-07T14:18:24;50.10;;;23.40;;
41705;SDS011;27385;51.096;17.190;2023-04-07T14:20:55;35.80;;;16.30;;
41705;SDS011;27385;51.096;17.190;2023-04-07T14:23:27;40.40;;;19.60;;
41705;SDS011;27385;51.096;17.190;2023-04-07T14:25:58;73.50;;;42.70;;
41705;SDS011;27385;51.096;17.190;2023-04-07T14:28:29;62.70;;;36.80;;
41705;SDS011;27385;51.096;17.190;2023-04-07T14:31:00;59.50;;;29.30;;
41705;SDS011;27385;51.096;17.190;2023-04-07T14:33:31;66.60;;;27.70;;
41705;SDS011;27385;51.096;17.190;2023-04-07T14:36:02;65.70;;;26.30;;
41705;SDS011;27385;51.096;17.190;2023-04-07T14:38:33;54.40;;;20.40;;
41705;SDS011;27385;51.096;17.190;2023-04-07T14:41:04;91.10;;;32.00;;
41705;SDS011;27385;51.096;17.190;2023-04-07T14:43:36;75.80;;;27.60;;
41705;SDS011;27385;51.096;17.190;2023-04-07T14:46:07;44.40;;;16.10;;
41705;SDS011;27385;51.096;17.190;2023-04-07T14:48:38;41.60;;;17.60;;
41705;SDS011;27385;51.096;17.190;2023-04-07T14:51:11;39.00;;;17.20;;
41705;SDS011;27385;51.096;17.190;2023-04-07T14:53:42;27.20;;;12.10;;
41705;SDS011;27385;51.096;17.190;2023-04-07T14:56:13;28.70;;;12.60;;
41705;SDS011;27385;51.096;17.190;2023-04-07T14:58:44;27.00;;;12.30;;
41705;SDS011;27385;51.096;17.190;2023-04-07T15:01:15;28.00;;;11.10;;
41705;SDS011;27385;51.096;17.190;2023-04-07T15:03:46;24.70;;;9.90;;
41705;SDS011;27385;51.096;17.190;2023-04-07T15:06:19;30.20;;;12.80;;
41705;SDS011;27385;51.096;17.190;2023-04-07T15:08:50;23.50;;;10.50;;